CMA CGM Thalassa — 5BNE2 — position and weather

sailwx.info

Track history (hours):
 
Tides and Currents Weather Stations Pressure Air Temp Water Temp Dewpoint Dewpoint Depression Visibility Wind Speed Wind Dir Waves Ship Positions

CMA CGM Thalassa

Last reported at 2016-Nov-30 08:16 UTC. Time now 2016-Dec-10 03:12 UTC.
Position N 22°19' E 114°06'.
Warning: this ship's position is 9 days out of date.

Length 347 m; draft 11.2 m.

Type: Ship (hazmat cat A). MMSI: 212151000.

Date/timePositionNaut miles runAvg speedWind from/ knotsBaromVisibWave heightAir tempDewpointWater temp
2016-Nov-30 08:16N 22°19' E 114°06'2 0.1
2016-Nov-29 19:16N 22°20' E 114°07'0 0.0
2016-Nov-29 16:06N 22°20' E 114°07'0 0.0
2016-Nov-29 15:24N 22°20' E 114°07'0 0.0
2016-Nov-29 14:31N 22°20' E 114°07'0 0.0
2016-Nov-29 13:33N 22°20' E 114°07'0 0.0
2016-Nov-29 12:32N 22°20' E 114°07'17 4.2
2016-Nov-29 08:23N 22°17' E 113°48'9 0.4
2016-Nov-28 10:21N 22°25' E 113°46'24212.2
2016-Nov-27 14:33N 23°34' E 117°57'1616.2
2016-Nov-27 13:33N 23°47' E 118°09'1616.0
2016-Nov-27 12:32N 24°01' E 118°18'1414.2
2016-Nov-27 11:33N 24°14' E 118°16'1312.9
2016-Nov-27 10:33N 24°24' E 118°06'6 5.5
2016-Nov-27 09:33N 24°27' E 118°01'0 0.0
2016-Nov-27 08:33N 24°27' E 118°01'0 0.0
2016-Nov-27 07:34N 24°27' E 118°01'0 0.0
2016-Nov-27 06:33N 24°27' E 118°01'0 0.0
2016-Nov-27 05:34N 24°27' E 118°01'0 0.1
2016-Nov-27 04:33N 24°27' E 118°01'0 0.1
2016-Nov-27 03:34N 24°27' E 118°01'0 0.0
2016-Nov-27 02:33N 24°27' E 118°01'0 0.0
2016-Nov-27 01:33N 24°27' E 118°01'0 0.1
2016-Nov-27 00:33N 24°27' E 118°01'0 0.1
2016-Nov-26 23:33N 24°27' E 118°01'0 0.0
2016-Nov-26 22:34N 24°27' E 118°01'0 0.0
2016-Nov-26 21:34N 24°27' E 118°01'0 0.0
2016-Nov-26 20:33N 24°27' E 118°01'0 0.0
2016-Nov-26 19:33N 24°27' E 118°01'0 0.0
2016-Nov-26 18:33N 24°27' E 118°01'0 0.0
2016-Nov-26 17:33N 24°27' E 118°01'0 0.0
2016-Nov-26 16:33N 24°27' E 118°01'0 0.0
2016-Nov-26 15:33N 24°27' E 118°01'0 0.1
2016-Nov-26 14:33N 24°27' E 118°01'0 0.0
2016-Nov-26 13:34N 24°27' E 118°01'0 0.0
2016-Nov-26 12:33N 24°27' E 118°01'0 0.1
2016-Nov-26 11:33N 24°27' E 118°01'1 1.0
2016-Nov-26 10:33N 24°26' E 118°02'1110.9
2016-Nov-26 09:33N 24°19' E 118°11'1111.5
2016-Nov-26 08:33N 24°12' E 118°21'90 6.2
2016-Nov-25 18:06N 25°25' E 119°17'0 0.0
2016-Nov-25 17:30N 25°25' E 119°17'0 0.0
2016-Nov-25 16:29N 25°25' E 119°17'0 0.0
2016-Nov-25 15:17N 25°25' E 119°17'0 0.0
2016-Nov-25 14:16N 25°25' E 119°17'0 0.0
2016-Nov-25 13:22N 25°25' E 119°17'0 0.0
2016-Nov-25 12:33N 25°25' E 119°17'0 0.0
2016-Nov-25 11:33N 25°25' E 119°17'23 5.8
2016-Nov-25 07:33N 25°16' E 119°41'  
Track history (hours):
 
Tides and Currents Weather Stations Pressure Air Temp Water Temp Dewpoint Dewpoint Depression Visibility Wind Speed Wind Dir Waves Ship Positions

CMA CGM Thalassa

Last reported at 2016-Nov-30 08:16 UTC. Time now 2016-Dec-10 03:12 UTC.
Position N 22°19' E 114°06'.
Warning: this ship's position is 9 days out of date.

Length 347 m; draft 11.2 m.

Type: Ship (hazmat cat A). MMSI: 212151000.

Date/timePositionNaut miles runAvg speedWind from/ knotsBaromVisibWave heightAir tempDewpointWater temp
2016-Nov-30 08:16N 22°19' E 114°06'2 0.1
2016-Nov-29 19:16N 22°20' E 114°07'0 0.0
2016-Nov-29 16:06N 22°20' E 114°07'0 0.0
2016-Nov-29 15:24N 22°20' E 114°07'0 0.0
2016-Nov-29 14:31N 22°20' E 114°07'0 0.0
2016-Nov-29 13:33N 22°20' E 114°07'0 0.0
2016-Nov-29 12:32N 22°20' E 114°07'17 4.2
2016-Nov-29 08:23N 22°17' E 113°48'9 0.4
2016-Nov-28 10:21N 22°25' E 113°46'24212.2
2016-Nov-27 14:33N 23°34' E 117°57'1616.2
2016-Nov-27 13:33N 23°47' E 118°09'1616.0
2016-Nov-27 12:32N 24°01' E 118°18'1414.2
2016-Nov-27 11:33N 24°14' E 118°16'1312.9
2016-Nov-27 10:33N 24°24' E 118°06'6 5.5
2016-Nov-27 09:33N 24°27' E 118°01'0 0.0
2016-Nov-27 08:33N 24°27' E 118°01'0 0.0
2016-Nov-27 07:34N 24°27' E 118°01'0 0.0
2016-Nov-27 06:33N 24°27' E 118°01'0 0.0
2016-Nov-27 05:34N 24°27' E 118°01'0 0.1
2016-Nov-27 04:33N 24°27' E 118°01'0 0.1
2016-Nov-27 03:34N 24°27' E 118°01'0 0.0
2016-Nov-27 02:33N 24°27' E 118°01'0 0.0
2016-Nov-27 01:33N 24°27' E 118°01'0 0.1
2016-Nov-27 00:33N 24°27' E 118°01'0 0.1
2016-Nov-26 23:33N 24°27' E 118°01'0 0.0
2016-Nov-26 22:34N 24°27' E 118°01'0 0.0
2016-Nov-26 21:34N 24°27' E 118°01'0 0.0
2016-Nov-26 20:33N 24°27' E 118°01'0 0.0
2016-Nov-26 19:33N 24°27' E 118°01'0 0.0
2016-Nov-26 18:33N 24°27' E 118°01'0 0.0
2016-Nov-26 17:33N 24°27' E 118°01'0 0.0
2016-Nov-26 16:33N 24°27' E 118°01'0 0.0
2016-Nov-26 15:33N 24°27' E 118°01'0 0.1
2016-Nov-26 14:33N 24°27' E 118°01'0 0.0
2016-Nov-26 13:34N 24°27' E 118°01'0 0.0
2016-Nov-26 12:33N 24°27' E 118°01'0 0.1
2016-Nov-26 11:33N 24°27' E 118°01'1 1.0
2016-Nov-26 10:33N 24°26' E 118°02'1110.9
2016-Nov-26 09:33N 24°19' E 118°11'1111.5
2016-Nov-26 08:33N 24°12' E 118°21'90 6.2
2016-Nov-25 18:06N 25°25' E 119°17'0 0.0
2016-Nov-25 17:30N 25°25' E 119°17'0 0.0
2016-Nov-25 16:29N 25°25' E 119°17'0 0.0
2016-Nov-25 15:17N 25°25' E 119°17'0 0.0
2016-Nov-25 14:16N 25°25' E 119°17'0 0.0
2016-Nov-25 13:22N 25°25' E 119°17'0 0.0
2016-Nov-25 12:33N 25°25' E 119°17'0 0.0
2016-Nov-25 11:33N 25°25' E 119°17'23 5.8
2016-Nov-25 07:33N 25°16' E 119°41'  

Dump ship's entire track history